createdAt,value
2023-05-05T00:01:11.644Z,100779.75
2023-05-05T00:03:38.160Z,100776.75
2023-05-05T00:06:05.533Z,100771.22
2023-05-05T00:08:32.072Z,100780.50
2023-05-05T00:10:58.556Z,100788.72
2023-05-05T00:13:25.033Z,100783.81
2023-05-05T00:15:51.749Z,100782.44
2023-05-05T00:18:18.260Z,100777.78
2023-05-05T00:20:44.661Z,100769.72
2023-05-05T00:23:11.091Z,100774.06
2023-05-05T00:25:37.500Z,100772.03
2023-05-05T00:28:03.914Z,100771.75
2023-05-05T00:30:30.334Z,100762.88
2023-05-05T00:32:57.318Z,100759.44
2023-05-05T00:35:23.726Z,100758.59
2023-05-05T00:37:50.616Z,100762.50
2023-05-05T00:40:18.721Z,100773.75
2023-05-05T00:42:45.171Z,100771.03
2023-05-05T00:45:11.975Z,100771.53
2023-05-05T00:47:38.358Z,100773.53
2023-05-05T00:50:04.875Z,100775.38
2023-05-05T00:52:31.471Z,100770.22
2023-05-05T00:54:57.904Z,100776.34
2023-05-05T00:57:24.299Z,100775.50
2023-05-05T00:59:50.844Z,100772.31
2023-05-05T01:02:17.235Z,100763.66
2023-05-05T01:04:43.684Z,100765.09
2023-05-05T01:07:10.118Z,100768.19
2023-05-05T01:09:36.780Z,100771.63
2023-05-05T01:12:03.614Z,100778.13
2023-05-05T01:14:30.403Z,100781.66
2023-05-05T01:16:57.158Z,100781.75
2023-05-05T01:19:23.610Z,100787.94
2023-05-05T01:21:50.032Z,100780.50
2023-05-05T01:24:16.601Z,100779.91
2023-05-05T01:26:43.884Z,100784.34
2023-05-05T01:29:10.252Z,100772.56
2023-05-05T01:31:36.643Z,100776.25
2023-05-05T01:34:03.007Z,100777.69
2023-05-05T01:36:29.325Z,100779.97
2023-05-05T01:38:55.756Z,100780.28
2023-05-05T01:41:22.137Z,100786.31
2023-05-05T01:43:49.807Z,100786.16
2023-05-05T01:46:16.270Z,100794.47
2023-05-05T01:48:42.768Z,100797.13
2023-05-05T01:51:09.162Z,100799.66
2023-05-05T01:53:35.507Z,100791.50
2023-05-05T01:56:01.873Z,100790.47
2023-05-05T01:58:28.297Z,100786.25
2023-05-05T02:00:54.924Z,100794.19
2023-05-05T02:03:22.742Z,100790.09
2023-05-05T02:05:49.175Z,100796.13
2023-05-05T02:08:15.548Z,100805.91
2023-05-05T02:10:42.758Z,100810.69
2023-05-05T02:13:09.726Z,100816.19
2023-05-05T02:15:36.235Z,100812.97
2023-05-05T02:18:03.262Z,100824.19
2023-05-05T02:20:29.693Z,100816.50
2023-05-05T02:22:56.055Z,100819.19
2023-05-05T02:25:22.417Z,100816.44
2023-05-05T02:27:48.764Z,100821.88
2023-05-05T02:30:15.443Z,100825.75
2023-05-05T02:32:42.702Z,100834.16
2023-05-05T02:35:09.352Z,100836.59
2023-05-05T02:37:40.579Z,100835.25
2023-05-05T02:40:07.149Z,100839.50
2023-05-05T02:42:33.820Z,100835.91
2023-05-05T02:45:00.534Z,100835.13
2023-05-05T02:47:28.832Z,100842.88
2023-05-05T02:49:55.546Z,100845.34
2023-05-05T02:52:22.109Z,100836.06
2023-05-05T02:54:48.531Z,100837.69
2023-05-05T02:57:17.620Z,100835.28
2023-05-05T02:59:48.591Z,100842.56
2023-05-05T03:02:19.235Z,100833.63
2023-05-05T03:04:46.321Z,100840.63
2023-05-05T03:07:14.102Z,100839.50
2023-05-05T03:09:43.242Z,100831.56
2023-05-05T03:12:09.707Z,100835.13
2023-05-05T03:14:46.463Z,100835.31
2023-05-05T03:17:15.489Z,100838.13
2023-05-05T03:19:41.917Z,100838.25
2023-05-05T03:22:08.346Z,100843.59
2023-05-05T03:24:36.170Z,100840.88
2023-05-05T03:27:07.045Z,100845.16
2023-05-05T03:29:37.163Z,100833.44
2023-05-05T03:32:07.154Z,100841.75
2023-05-05T03:34:35.783Z,100832.66
2023-05-05T03:37:02.880Z,100834.41
2023-05-05T03:39:29.689Z,100833.16
2023-05-05T03:41:56.502Z,100832.72
2023-05-05T03:44:25.587Z,100837.16
2023-05-05T03:46:52.027Z,100840.84
2023-05-05T03:49:19.699Z,100837.09
2023-05-05T03:51:47.958Z,100836.06
2023-05-05T03:54:14.822Z,100836.41
2023-05-05T03:56:41.327Z,100835.19
2023-05-05T03:59:08.735Z,100842.44
2023-05-05T04:01:35.684Z,100844.06
2023-05-05T04:04:02.101Z,100852.34
2023-05-05T04:06:28.609Z,100845.97
2023-05-05T04:08:54.975Z,100851.69
2023-05-05T04:11:21.931Z,100851.59
2023-05-05T04:13:49.867Z,100861.53
2023-05-05T04:16:17.353Z,100865.97
2023-05-05T04:18:43.798Z,100881.81
2023-05-05T04:21:10.247Z,100885.63
2023-05-05T04:23:38.796Z,100879.53
2023-05-05T04:26:05.313Z,100883.09
2023-05-05T04:28:31.736Z,100888.44
2023-05-05T04:30:59.368Z,100894.59
2023-05-05T04:33:26.221Z,100894.75
2023-05-05T04:35:52.655Z,100898.03
2023-05-05T04:38:21.030Z,100897.06
2023-05-05T04:40:47.994Z,100889.75
2023-05-05T04:43:14.620Z,100892.34
2023-05-05T04:45:41.131Z,100898.94
2023-05-05T04:48:07.768Z,100891.66
2023-05-05T04:50:34.313Z,100909.78
2023-05-05T04:53:00.734Z,100903.53
2023-05-05T04:55:27.224Z,100899.75
2023-05-05T04:57:53.643Z,100909.47
2023-05-05T05:00:20.036Z,100906.78
2023-05-05T05:02:46.474Z,100905.88
2023-05-05T05:05:12.934Z,100903.38
2023-05-05T05:07:39.378Z,100906.75
2023-05-05T05:10:05.817Z,100916.59
2023-05-05T05:12:32.478Z,100912.41
2023-05-05T05:14:58.913Z,100915.09
2023-05-05T05:17:26.688Z,100919.50
2023-05-05T05:19:55.144Z,100924.84
2023-05-05T05:22:21.779Z,100924.97
2023-05-05T05:24:48.294Z,100924.75
2023-05-05T05:27:14.837Z,100936.59
2023-05-05T05:29:44.700Z,100932.75
2023-05-05T05:32:11.236Z,100926.16
2023-05-05T05:34:38.022Z,100929.75
2023-05-05T05:37:06.350Z,100929.47
2023-05-05T05:39:32.807Z,100936.75
2023-05-05T05:41:59.911Z,100940.00
2023-05-05T05:44:26.842Z,100933.56
2023-05-05T05:46:53.336Z,100936.50
2023-05-05T05:49:19.743Z,100939.13
2023-05-05T05:51:46.903Z,100935.31
2023-05-05T05:54:13.368Z,100936.38
2023-05-05T05:56:41.085Z,100931.78
2023-05-05T05:59:10.634Z,100935.91
2023-05-05T06:01:40.306Z,100937.19
2023-05-05T06:04:07.597Z,100939.63
2023-05-05T06:06:34.292Z,100947.38
2023-05-05T06:09:00.945Z,100937.47
2023-05-05T06:11:28.672Z,100943.78
2023-05-05T06:13:55.188Z,100941.28
2023-05-05T06:16:21.667Z,100938.28
2023-05-05T06:18:48.678Z,100941.00
2023-05-05T06:21:15.091Z,100945.06
2023-05-05T06:23:42.728Z,100947.75
2023-05-05T06:26:09.184Z,100946.72
2023-05-05T06:28:35.784Z,100931.06
2023-05-05T06:31:02.156Z,100932.75
2023-05-05T06:33:28.532Z,100922.59
2023-05-05T06:35:54.953Z,100928.28
2023-05-05T06:38:21.459Z,100927.13
2023-05-05T06:40:48.490Z,100927.91
2023-05-05T06:43:14.893Z,100940.25
2023-05-05T06:45:46.200Z,100948.91
2023-05-05T06:48:12.703Z,100946.22
2023-05-05T06:50:39.245Z,100951.63
2023-05-05T06:53:05.973Z,100961.91
2023-05-05T06:55:32.363Z,100961.91
2023-05-05T06:57:58.774Z,100958.44
2023-05-05T07:00:25.226Z,100973.06
2023-05-05T07:02:51.905Z,100977.16
2023-05-05T07:05:18.465Z,100971.69
2023-05-05T07:07:44.894Z,100971.56
2023-05-05T07:10:11.274Z,100981.09
2023-05-05T07:12:37.698Z,100977.88
2023-05-05T07:15:15.478Z,100981.75
2023-05-05T07:17:50.198Z,100980.75
2023-05-05T07:20:16.742Z,100978.72
2023-05-05T07:22:43.207Z,100988.75
2023-05-05T07:25:09.612Z,100990.50
2023-05-05T07:27:36.013Z,101000.88
2023-05-05T07:30:04.040Z,100994.66
2023-05-05T07:32:32.941Z,100996.03
2023-05-05T07:34:59.352Z,101000.47
2023-05-05T07:37:25.701Z,100995.97
2023-05-05T07:39:52.068Z,101008.59
2023-05-05T07:42:18.472Z,101002.41
2023-05-05T07:44:45.152Z,101012.28
2023-05-05T07:47:11.796Z,101008.44
2023-05-05T07:49:38.168Z,101011.47
2023-05-05T07:52:04.976Z,101020.94
2023-05-05T07:54:31.339Z,101006.91
2023-05-05T07:56:57.775Z,101011.13
2023-05-05T07:59:24.159Z,101004.91
2023-05-05T08:01:51.129Z,100999.28
2023-05-05T08:04:18.574Z,101007.44
2023-05-05T08:06:44.972Z,101009.44
2023-05-05T08:09:11.741Z,101000.66
2023-05-05T08:11:38.154Z,101012.06
2023-05-05T08:14:04.504Z,101001.94
2023-05-05T08:16:30.963Z,101005.06
2023-05-05T08:18:57.337Z,101012.88
2023-05-05T08:21:23.705Z,101009.88
2023-05-05T08:23:50.048Z,101010.72
2023-05-05T08:26:16.596Z,101007.34
2023-05-05T08:28:43.070Z,101000.25
2023-05-05T08:31:09.465Z,101004.63
2023-05-05T08:33:36.001Z,101014.47
2023-05-05T08:36:02.370Z,101007.28
2023-05-05T08:38:28.865Z,101008.34
2023-05-05T08:40:55.261Z,101002.94
2023-05-05T08:43:23.755Z,101017.03
2023-05-05T08:45:51.264Z,101011.47
2023-05-05T08:48:17.676Z,101005.75
2023-05-05T08:50:44.051Z,101004.69
2023-05-05T08:53:10.592Z,100999.63
2023-05-05T08:55:37.006Z,100997.03
2023-05-05T08:58:04.220Z,100999.59
2023-05-05T09:00:30.613Z,101001.84
2023-05-05T09:02:57.736Z,100997.72
2023-05-05T09:05:24.181Z,101008.63
2023-05-05T09:07:50.687Z,101011.50
2023-05-05T09:10:17.117Z,101005.09
2023-05-05T09:12:43.506Z,101010.84
2023-05-05T09:15:10.160Z,101011.06
2023-05-05T09:17:36.831Z,101016.50
2023-05-05T09:20:04.464Z,101005.56
2023-05-05T09:22:30.861Z,101018.09
2023-05-05T09:24:57.244Z,101016.59
2023-05-05T09:27:23.609Z,101014.53
2023-05-05T09:29:50.689Z,101023.84
2023-05-05T09:32:17.031Z,101021.97
2023-05-05T09:34:43.416Z,101017.28
2023-05-05T09:37:09.804Z,101014.75
2023-05-05T09:39:36.153Z,101015.00
2023-05-05T09:42:02.981Z,101021.59
2023-05-05T09:44:29.335Z,101023.38
2023-05-05T09:46:55.894Z,101014.00
2023-05-05T09:51:53.387Z,101010.44
2023-05-05T09:54:19.737Z,101014.38
2023-05-05T09:56:46.079Z,101009.75
2023-05-05T09:59:12.474Z,100996.28
2023-05-05T10:01:39.346Z,100990.63
2023-05-05T10:04:06.056Z,101002.16
2023-05-05T10:06:32.502Z,100998.19
2023-05-05T10:08:58.926Z,100994.69
2023-05-05T10:11:25.341Z,100995.53
2023-05-05T10:13:51.788Z,100997.31
2023-05-05T10:16:18.139Z,100988.66
2023-05-05T10:18:44.573Z,100980.06
2023-05-05T10:21:10.973Z,100971.19
2023-05-05T10:23:41.115Z,100975.00
2023-05-05T10:26:13.225Z,100974.56
2023-05-05T10:28:41.341Z,100968.97
2023-05-05T10:31:20.006Z,100964.75
2023-05-05T10:33:51.336Z,100964.78
2023-05-05T10:36:17.893Z,100972.75
2023-05-05T10:38:44.389Z,100964.06
2023-05-05T10:41:11.068Z,100966.78
2023-05-05T10:43:37.456Z,100961.13
2023-05-05T10:46:03.914Z,100964.53
2023-05-05T10:48:30.349Z,100961.91
2023-05-05T10:50:56.728Z,100954.19
2023-05-05T10:53:23.174Z,100957.28
2023-05-05T10:55:49.729Z,100947.53
2023-05-05T10:58:16.082Z,100932.72
2023-05-05T11:00:42.454Z,100933.47
2023-05-05T11:03:08.913Z,100938.34
2023-05-05T11:05:35.284Z,100948.97
2023-05-05T11:08:01.750Z,100940.22
2023-05-05T11:10:28.114Z,100943.66
2023-05-05T11:12:59.225Z,100941.31
2023-05-05T11:15:25.778Z,100931.06
2023-05-05T11:17:52.256Z,100925.59
2023-05-05T11:20:18.676Z,100925.09
2023-05-05T11:22:45.042Z,100926.91
2023-05-05T11:25:11.401Z,100927.53
2023-05-05T11:27:37.765Z,100926.63
2023-05-05T11:30:04.123Z,100924.19
2023-05-05T11:32:30.806Z,100927.38
2023-05-05T11:34:57.159Z,100922.59
2023-05-05T11:37:24.351Z,100926.44
2023-05-05T11:39:50.866Z,100922.59
2023-05-05T11:42:17.233Z,100935.84
2023-05-05T11:44:43.560Z,100932.09
2023-05-05T11:47:09.957Z,100937.31
2023-05-05T11:49:36.333Z,100938.56
2023-05-05T11:52:02.794Z,100947.78
2023-05-05T11:54:29.156Z,100957.09
2023-05-05T11:56:55.572Z,100952.53
2023-05-05T11:59:21.946Z,100949.56
2023-05-05T12:01:48.287Z,100952.88
2023-05-05T12:04:14.791Z,100962.13
2023-05-05T12:06:41.252Z,100953.75
2023-05-05T12:09:08.358Z,100957.00
2023-05-05T12:11:34.743Z,100959.88
2023-05-05T12:14:01.200Z,100953.06
2023-05-05T12:16:27.577Z,100955.97
2023-05-05T12:18:54.009Z,100957.19
2023-05-05T12:21:20.480Z,100949.09
2023-05-05T12:23:46.956Z,100958.84
2023-05-05T12:26:13.539Z,100947.66
2023-05-05T12:28:39.909Z,100947.97
2023-05-05T12:31:06.335Z,100958.50
2023-05-05T12:33:32.743Z,100948.44
2023-05-05T12:35:59.133Z,100949.03
2023-05-05T12:38:25.491Z,100944.19
2023-05-05T12:40:53.866Z,100949.16
2023-05-05T12:43:20.296Z,100941.44
2023-05-05T12:45:46.747Z,100945.31
2023-05-05T12:48:13.135Z,100940.38
2023-05-05T12:50:39.496Z,100938.94
2023-05-05T12:53:05.865Z,100941.31
2023-05-05T12:55:32.298Z,100944.28
2023-05-05T12:58:00.363Z,100941.13
2023-05-05T13:00:26.746Z,100942.41
2023-05-05T13:02:53.362Z,100933.16
2023-05-05T13:05:19.894Z,100931.34
2023-05-05T13:07:46.357Z,100928.25
2023-05-05T13:10:13.027Z,100924.88
2023-05-05T13:12:39.504Z,100923.03
2023-05-05T13:15:06.641Z,100919.34
2023-05-05T13:17:34.811Z,100926.22
2023-05-05T13:20:01.319Z,100932.34
2023-05-05T13:22:27.703Z,100936.31
2023-05-05T13:24:54.160Z,100928.03
2023-05-05T13:27:20.688Z,100935.78
2023-05-05T13:29:47.117Z,100930.03
2023-05-05T13:32:13.510Z,100929.31
2023-05-05T13:34:39.983Z,100919.69
2023-05-05T13:37:06.542Z,100918.66
2023-05-05T13:39:33.116Z,100913.41
2023-05-05T13:41:59.526Z,100906.22
2023-05-05T13:44:25.884Z,100907.09
2023-05-05T13:46:52.450Z,100910.69
2023-05-05T13:49:20.113Z,100912.75
2023-05-05T13:51:47.148Z,100898.47
2023-05-05T13:54:13.742Z,100893.41
2023-05-05T13:56:40.167Z,100900.78
2023-05-05T13:59:06.648Z,100895.66
2023-05-05T14:01:33.031Z,100894.53
2023-05-05T14:04:00.900Z,100896.78
2023-05-05T14:06:28.480Z,100899.63
2023-05-05T14:08:54.888Z,100894.28
2023-05-05T14:11:21.335Z,100903.47
2023-05-05T14:13:48.030Z,100902.94
2023-05-05T14:16:14.514Z,100903.81
2023-05-05T14:18:41.131Z,100896.75
2023-05-05T14:21:07.545Z,100908.25
2023-05-05T14:23:34.016Z,100913.28
2023-05-05T14:26:00.420Z,100914.25
2023-05-05T14:28:27.876Z,100911.38
2023-05-05T14:30:54.287Z,100916.44
2023-05-05T14:33:20.661Z,100965.13
2023-05-05T14:35:47.024Z,100966.97
2023-05-05T14:38:13.409Z,100970.06
2023-05-05T14:40:39.825Z,100962.38
2023-05-05T14:43:06.179Z,100957.59
2023-05-05T14:45:32.800Z,101015.88
2023-05-05T14:47:59.238Z,100972.41
2023-05-05T14:50:25.695Z,100964.41
2023-05-05T14:52:52.035Z,100980.63
2023-05-05T14:55:18.493Z,100981.53
2023-05-05T14:57:44.872Z,100968.09
2023-05-05T15:00:11.269Z,100985.72
2023-05-05T15:02:37.692Z,100980.50
2023-05-05T15:05:04.096Z,100966.28
2023-05-05T15:07:30.627Z,100987.41
2023-05-05T15:09:57.018Z,100978.59
2023-05-05T15:12:23.462Z,100982.91
2023-05-05T15:14:50.234Z,100985.00
2023-05-05T15:17:16.761Z,100994.56
2023-05-05T15:19:43.130Z,100988.19
2023-05-05T15:22:09.506Z,100993.91
2023-05-05T15:24:36.033Z,101002.13
2023-05-05T15:27:02.844Z,100989.50
2023-05-05T15:29:29.246Z,100991.38
2023-05-05T15:31:55.604Z,100991.38
2023-05-05T15:34:22.164Z,100996.81
2023-05-05T15:36:48.544Z,101009.13
2023-05-05T15:39:14.942Z,101010.06
2023-05-05T15:41:41.746Z,101016.28
2023-05-05T15:44:08.930Z,101018.09
2023-05-05T15:46:35.451Z,101015.44
2023-05-05T15:49:01.936Z,101028.81
2023-05-05T15:51:28.395Z,101035.88
2023-05-05T15:53:54.823Z,101030.53
2023-05-05T15:56:21.307Z,101016.31
2023-05-05T15:58:47.730Z,101015.41
2023-05-05T16:01:14.069Z,101018.16
2023-05-05T16:03:40.638Z,101003.06
2023-05-05T16:06:07.038Z,100995.00
2023-05-05T16:08:33.757Z,100989.63
2023-05-05T16:11:00.131Z,100994.97
2023-05-05T16:13:26.706Z,101000.38
2023-05-05T16:15:53.061Z,101004.78
2023-05-05T16:18:19.460Z,100987.59
2023-05-05T16:20:45.853Z,100988.31
2023-05-05T16:23:12.273Z,100982.91
2023-05-05T16:25:38.616Z,100975.03
2023-05-05T16:28:05.025Z,100981.47
2023-05-05T16:30:31.534Z,100976.91
2023-05-05T16:32:57.993Z,100976.09
2023-05-05T16:35:24.483Z,100977.06
2023-05-05T16:37:50.881Z,100973.47
2023-05-05T16:40:17.261Z,100969.84
2023-05-05T16:42:44.642Z,100964.53
2023-05-05T16:45:11.257Z,100977.84
2023-05-05T16:47:37.867Z,100976.94
2023-05-05T16:50:04.304Z,100983.06
2023-05-05T16:52:30.713Z,100981.31
2023-05-05T16:54:57.231Z,100972.50
2023-05-05T16:57:23.720Z,100975.09
2023-05-05T16:59:50.256Z,100974.44
2023-05-05T17:02:16.700Z,100964.28
2023-05-05T17:04:43.050Z,100968.06
2023-05-05T17:07:09.441Z,100969.00
2023-05-05T17:09:35.882Z,100973.44
2023-05-05T17:12:04.073Z,100973.03
2023-05-05T17:14:30.425Z,100981.88
2023-05-05T17:16:56.792Z,100981.63
2023-05-05T17:19:23.201Z,100988.94
2023-05-05T17:21:49.647Z,100995.19
2023-05-05T17:24:16.013Z,100986.56
2023-05-05T17:26:42.434Z,100980.63
2023-05-05T17:29:10.375Z,100981.63
2023-05-05T17:31:38.094Z,100982.19
2023-05-05T17:34:04.616Z,100974.97
2023-05-05T17:36:31.175Z,100980.97
2023-05-05T17:38:57.579Z,100988.19
2023-05-05T17:41:25.617Z,100991.66
2023-05-05T17:43:52.078Z,100997.75
2023-05-05T17:46:18.788Z,100996.13
2023-05-05T17:48:45.342Z,101004.16
2023-05-05T17:51:11.835Z,100999.66
2023-05-05T17:53:38.478Z,100992.19
2023-05-05T17:56:06.518Z,101001.31
2023-05-05T17:58:34.439Z,100995.19
2023-05-05T18:01:01.081Z,100991.28
2023-05-05T18:03:27.546Z,100991.19
2023-05-05T18:05:53.979Z,100992.94
2023-05-05T18:08:20.351Z,100995.38
2023-05-05T18:10:46.818Z,100995.50
2023-05-05T18:13:13.384Z,100997.25
2023-05-05T18:15:40.273Z,100998.41
2023-05-05T18:18:07.092Z,100994.81
2023-05-05T18:20:33.476Z,100993.31
2023-05-05T18:22:59.790Z,101001.44
2023-05-05T18:25:26.208Z,101000.00
2023-05-05T18:27:53.102Z,100995.56
2023-05-05T18:30:19.517Z,100999.34
2023-05-05T18:32:45.927Z,100994.97
2023-05-05T18:35:12.638Z,100996.69
2023-05-05T18:37:39.492Z,101000.56
2023-05-05T18:40:05.851Z,101001.06
2023-05-05T18:42:32.228Z,101004.81
2023-05-05T18:44:58.610Z,100988.66
2023-05-05T18:47:26.271Z,100987.25
2023-05-05T18:49:52.714Z,100985.81
2023-05-05T18:52:19.092Z,100985.44
2023-05-05T18:54:45.605Z,100989.97
2023-05-05T18:57:12.142Z,100999.78
2023-05-05T18:59:38.607Z,101004.91
2023-05-05T19:02:05.059Z,100999.69
2023-05-05T19:04:32.647Z,101010.56
2023-05-05T19:06:59.117Z,100999.72
2023-05-05T19:09:25.541Z,101010.53
2023-05-05T19:11:51.977Z,101006.03
2023-05-05T19:14:18.361Z,101004.34
2023-05-05T19:16:44.903Z,101000.63
2023-05-05T19:19:11.357Z,101002.56
2023-05-05T19:21:37.737Z,101007.94
2023-05-05T19:24:04.070Z,101015.16
2023-05-05T19:26:30.489Z,101017.72
2023-05-05T19:28:57.100Z,101018.59
2023-05-05T19:31:27.854Z,101025.72
2023-05-05T19:33:54.376Z,101031.94
2023-05-05T19:36:20.709Z,101031.09
2023-05-05T19:38:47.063Z,101032.13
2023-05-05T19:41:13.542Z,101036.63
2023-05-05T19:43:40.116Z,101034.00
2023-05-05T19:46:06.567Z,101037.56
2023-05-05T19:48:32.980Z,101039.44
2023-05-05T19:50:59.453Z,101040.28
2023-05-05T19:53:25.945Z,101041.09
2023-05-05T19:55:52.478Z,101043.88
2023-05-05T19:58:18.881Z,101047.41
2023-05-05T20:00:45.217Z,101043.78
2023-05-05T20:03:11.859Z,101042.06
2023-05-05T20:05:38.313Z,101042.97
2023-05-05T20:08:04.678Z,101037.66
2023-05-05T20:10:31.102Z,101034.81
2023-05-05T20:12:57.470Z,101030.47
2023-05-05T20:15:23.871Z,101040.31
2023-05-05T20:17:50.464Z,101028.72
2023-05-05T20:20:17.426Z,101032.31
2023-05-05T20:22:43.843Z,101026.97
2023-05-05T20:25:10.192Z,101023.41
2023-05-05T20:27:36.571Z,101032.31
2023-05-05T20:30:03.103Z,101030.53
2023-05-05T20:32:29.524Z,101029.63
2023-05-05T20:34:56.155Z,101031.41
2023-05-05T20:37:22.581Z,101026.06
2023-05-05T20:39:48.923Z,101031.44
2023-05-05T20:42:15.349Z,101030.50
2023-05-05T20:44:42.066Z,101020.69
2023-05-05T20:47:08.544Z,101023.44
2023-05-05T20:49:35.180Z,101018.94
2023-05-05T20:52:01.591Z,101018.09
2023-05-05T20:54:27.954Z,101018.09
2023-05-05T20:56:58.078Z,101021.72
2023-05-05T20:59:24.489Z,101021.72
2023-05-05T21:01:51.350Z,101023.44
2023-05-05T21:04:17.811Z,101018.16
2023-05-05T21:06:44.153Z,101019.97
2023-05-05T21:09:10.516Z,101025.28
2023-05-05T21:11:36.996Z,101027.94
2023-05-05T21:14:03.371Z,101029.72
2023-05-05T21:16:29.794Z,101030.59
2023-05-05T21:18:56.194Z,101028.84
2023-05-05T21:21:23.876Z,101023.50
2023-05-05T21:23:50.244Z,101037.72
2023-05-05T21:26:16.592Z,101034.19
2023-05-05T21:28:42.967Z,101030.63
2023-05-05T21:33:38.612Z,101035.06
2023-05-05T21:36:08.982Z,101036.88
2023-05-05T21:38:35.846Z,101032.41
2023-05-05T21:41:03.792Z,101032.41
2023-05-05T21:43:30.178Z,101040.41
2023-05-05T21:45:56.751Z,101031.47
2023-05-05T21:48:23.424Z,101030.59
2023-05-05T21:50:50.179Z,101035.00
2023-05-05T21:53:16.607Z,101035.94
2023-05-05T21:55:43.232Z,101033.25
2023-05-05T21:58:09.879Z,101025.25
2023-05-05T22:00:36.582Z,101031.53
2023-05-05T22:03:03.540Z,101024.38
2023-05-05T22:05:30.016Z,101033.28
2023-05-05T22:07:56.444Z,101023.50
2023-05-05T22:10:22.826Z,101026.16
2023-05-05T22:12:49.431Z,101030.63
2023-05-05T22:15:19.174Z,101021.75
2023-05-05T22:17:48.390Z,101035.09
2023-05-05T22:20:15.038Z,101035.97
2023-05-05T22:22:41.428Z,101025.28
2023-05-05T22:25:08.214Z,101037.66
2023-05-05T22:27:34.981Z,101030.56
2023-05-05T22:30:01.375Z,101030.63
2023-05-05T22:32:27.795Z,101031.50
2023-05-05T22:34:54.288Z,101036.84
2023-05-05T22:37:21.924Z,101038.66
2023-05-05T22:39:48.273Z,101037.72
2023-05-05T22:42:14.993Z,101042.06
2023-05-05T22:44:41.341Z,101043.00
2023-05-05T22:47:09.370Z,101036.84
2023-05-05T22:49:35.863Z,101033.28
2023-05-05T22:52:03.558Z,101034.19
2023-05-05T22:54:29.918Z,101034.16
2023-05-05T22:56:56.295Z,101027.06
2023-05-05T22:59:22.632Z,101035.09
2023-05-05T23:01:49.005Z,101028.78
2023-05-05T23:04:15.397Z,101027.00
2023-05-05T23:06:42.136Z,101031.44
2023-05-05T23:09:08.608Z,101032.28
2023-05-05T23:11:35.063Z,101034.88
2023-05-05T23:14:01.455Z,101026.09
2023-05-05T23:16:27.840Z,101026.06
2023-05-05T23:18:54.224Z,101034.06
2023-05-05T23:21:21.822Z,101028.75
2023-05-05T23:23:49.104Z,101029.59
2023-05-05T23:26:15.601Z,101035.72
2023-05-05T23:28:41.969Z,101030.47
2023-05-05T23:31:08.584Z,101036.72
2023-05-05T23:33:35.013Z,101035.84
2023-05-05T23:36:01.372Z,101036.78
2023-05-05T23:38:27.757Z,101037.66
2023-05-05T23:40:54.259Z,101039.44
2023-05-05T23:43:20.817Z,101043.88
2023-05-05T23:45:47.182Z,101041.19
2023-05-05T23:48:13.598Z,101042.06
2023-05-05T23:50:39.958Z,101043.78
2023-05-05T23:53:06.348Z,101040.19
2023-05-05T23:55:32.828Z,101028.59
2023-05-05T23:57:59.187Z,101029.50
